Time;durP1;ratioP1;P1;durP2;ratioP2;P2;SDS_P1;SDS_P2;PMS_P1;PMS_P2;Temp;Humidity;BMP_temperature;BMP_pressure;BME280_temperature;BME280_humidity;BME280_pressure;Samples;Min_cycle;Max_cycle;Signal;HPM_P1;HPM_P2
2022/08/01 00:01:29;;;;;;;20.13;11.43;;;;;;;17.93;nan;101497.38;5034425;28;20037;-61
2022/08/01 00:03:54;;;;;;;20.92;11.52;;;;;;;18.18;nan;101532.47;5034418;28;20033;-60
2022/08/01 00:06:19;;;;;;;15.95;10.73;;;;;;;18.23;nan;101537.53;5032959;28;20045;-61
2022/08/01 00:08:45;;;;;;;20.08;12.30;;;;;;;18.22;nan;101534.00;5032828;28;20030;-61
2022/08/01 00:11:10;;;;;;;16.23;12.07;;;;;;;18.24;nan;101547.28;5033966;28;20599;-61
2022/08/01 00:13:35;;;;;;;19.35;12.48;;;;;;;17.93;nan;101492.94;5033889;28;20037;-61
2022/08/01 00:16:01;;;;;;;17.77;11.65;;;;;;;18.25;nan;101541.84;5034253;28;20059;-59
2022/08/01 00:18:26;;;;;;;18.17;12.18;;;;;;;18.01;nan;101499.66;5033739;28;20064;-60
2022/08/01 00:20:52;;;;;;;17.15;11.02;;;;;;;17.97;nan;101501.63;5049293;28;20094;-60
2022/08/01 00:23:17;;;;;;;15.18;10.82;;;;;;;18.29;nan;101542.56;5033787;28;20079;-60
2022/08/01 00:25:42;;;;;;;15.18;10.82;;;;;;;18.06;nan;101506.47;5033768;28;20137;-61
2022/08/01 00:28:08;;;;;;;14.88;10.73;;;;;;;18.30;nan;101542.47;5033646;28;20036;-60
2022/08/01 00:30:34;;;;;;;15.48;9.55;;;;;;;18.30;nan;101544.28;5032339;28;20077;-60
2022/08/01 00:32:59;;;;;;;12.43;8.95;;;;;;;18.05;nan;101512.72;5033822;28;20435;-60
2022/08/01 00:35:25;;;;;;;13.02;9.50;;;;;;;18.29;nan;101546.09;5033716;28;20124;-60
2022/08/01 00:37:51;;;;;;;12.05;8.63;;;;;;;18.30;nan;101541.63;5032406;28;20029;-60
2022/08/01 00:40:16;;;;;;;10.25;7.20;;;;;;;18.31;nan;101551.31;5032909;28;20072;-61
2022/08/01 00:42:42;;;;;;;8.23;6.22;;;;;;;18.20;nan;101538.56;5048677;28;20053;-60
2022/08/01 00:45:08;;;;;;;7.22;4.97;;;;;;;18.17;nan;101549.41;5032191;28;20037;-60
2022/08/01 00:47:33;;;;;;;6.25;4.68;;;;;;;18.15;nan;101548.63;5033262;28;20033;-61
2022/08/01 00:49:58;;;;;;;8.02;4.70;;;;;;;17.82;nan;101502.41;5033491;28;20110;-61
2022/08/01 00:52:23;;;;;;;6.13;4.35;;;;;;;18.06;nan;101540.25;5048458;28;20047;-60
2022/08/01 00:54:50;;;;;;;5.90;4.20;;;;;;;17.79;nan;101508.78;5033134;28;20273;-60
2022/08/01 00:57:15;;;;;;;5.70;3.90;;;;;;;17.66;nan;101493.50;5032138;28;20040;-60
2022/08/01 00:59:41;;;;;;;4.68;3.50;;;;;;;18.05;nan;101559.81;5033069;28;20029;-60
2022/08/01 01:02:06;;;;;;;5.38;3.17;;;;;;;17.78;nan;101503.50;5033284;28;20503;-61
2022/08/01 01:04:31;;;;;;;3.60;3.15;;;;;;;18.03;nan;101546.59;5032842;28;20041;-61
2022/08/01 01:07:18;;;;;;;5.40;3.13;;;;;;;17.79;nan;101503.44;5032976;28;20117;-61
2022/08/01 01:09:52;;;;;;;3.85;3.22;;;;;;;17.91;nan;101531.25;5032806;28;20030;-60
2022/08/01 01:12:35;;;;;;;5.93;3.95;;;;;;;17.73;nan;101498.44;5031438;28;20040;-61
2022/08/01 01:15:10;;;;;;;5.18;4.25;;;;;;;17.92;nan;101527.66;5031572;28;20116;-60
2022/08/01 01:17:51;;;;;;;5.78;4.45;;;;;;;17.76;nan;101502.72;5031224;28;20112;-60
2022/08/01 01:20:17;;;;;;;6.53;4.85;;;;;;;17.98;nan;101535.28;5031642;28;20030;-59
2022/08/01 01:22:53;;;;;;;7.72;5.40;;;;;;;18.01;nan;101536.97;5031289;28;20037;-59
2022/08/01 01:25:37;;;;;;;6.80;5.38;;;;;;;17.69;nan;101486.22;5031649;28;20029;-60
2022/08/01 01:28:23;;;;;;;6.95;5.03;;;;;;;17.98;nan;101537.97;5032642;28;20057;-61
2022/08/01 01:30:50;;;;;;;6.80;5.10;;;;;;;17.66;nan;101489.03;5032695;28;20493;-59
2022/08/01 01:33:16;;;;;;;6.65;4.88;;;;;;;17.89;nan;101549.13;5031598;28;20033;-62
2022/08/01 01:35:46;;;;;;;5.93;5.22;;;;;;;17.89;nan;101557.09;5031236;28;20032;-60
2022/08/01 01:38:18;;;;;;;7.47;4.40;;;;;;;17.57;nan;101500.13;5031349;28;20025;-60
2022/08/01 01:40:45;;;;;;;5.68;4.13;;;;;;;17.81;nan;101543.28;5031389;28;20030;-61
2022/08/01 01:43:11;;;;;;;4.28;3.88;;;;;;;17.65;nan;101529.06;5031246;28;20488;-61
2022/08/01 01:45:37;;;;;;;7.45;4.28;;;;;;;17.68;nan;101537.75;5031194;28;20037;-61
2022/08/01 01:48:03;;;;;;;6.18;4.78;;;;;;;17.51;nan;101515.56;5031226;28;20083;-61
2022/08/01 01:50:29;;;;;;;6.18;4.50;;;;;;;17.77;nan;101552.41;5032198;28;20218;-60
2022/08/01 01:52:55;;;;;;;7.72;4.57;;;;;;;17.77;nan;101549.75;5031594;28;20048;-59
2022/08/01 01:55:21;;;;;;;5.70;4.65;;;;;;;17.77;nan;101555.94;5031225;28;20041;-60
2022/08/01 01:57:47;;;;;;;4.85;4.38;;;;;;;17.72;nan;101544.63;5014595;28;20037;-61
2022/08/01 02:00:13;;;;;;;5.43;4.38;;;;;;;17.52;nan;101511.94;5030826;28;20034;-59
2022/08/01 02:02:39;;;;;;;5.53;4.60;;;;;;;17.56;nan;101508.22;5047514;28;20128;-61
2022/08/01 02:05:06;;;;;;;7.18;4.95;;;;;;;17.82;nan;101545.91;5031115;28;20053;-61
2022/08/01 02:07:32;;;;;;;6.28;4.35;;;;;;;17.36;nan;101475.47;5030981;28;20568;-61
2022/08/01 02:09:59;;;;;;;6.68;4.65;;;;;;;17.45;nan;101498.94;5031043;28;20040;-61
2022/08/01 02:12:25;;;;;;;5.80;4.97;;;;;;;17.40;nan;101495.66;5014573;28;20034;-60
2022/08/01 02:14:53;;;;;;;9.05;5.55;;;;;;;17.71;nan;101550.06;5031127;28;20042;-60
2022/08/01 02:17:20;;;;;;;5.47;4.97;;;;;;;17.58;nan;101524.97;5031073;28;20084;-60
2022/08/01 02:19:46;;;;;;;6.90;5.13;;;;;;;17.43;nan;101506.13;5030932;28;20377;-61
2022/08/01 02:22:37;;;;;;;6.03;5.47;;;;;;;17.40;nan;101495.66;5031045;28;20073;-60
2022/08/01 02:25:02;;;;;;;;;;;;;;;17.74;nan;101550.75;5031176;28;20511;-60
2022/08/01 02:27:31;;;;;;;6.57;5.20;;;;;;;17.73;nan;101562.34;5032266;28;19913;-60
2022/08/01 02:29:58;;;;;;;10.32;6.40;;;;;;;17.49;nan;101509.41;5031883;28;20050;-60
2022/08/01 02:32:27;;;;;;;8.02;5.95;;;;;;;17.22;nan;101469.13;5031876;28;20039;-61
2022/08/01 02:34:53;;;;;;;7.20;6.35;;;;;;;17.69;nan;101544.78;5031945;28;20379;-62
2022/08/01 02:37:20;;;;;;;7.78;6.45;;;;;;;17.65;nan;101547.69;5031978;28;20026;-60
2022/08/01 02:39:48;;;;;;;11.25;6.75;;;;;;;17.65;nan;101551.22;5030582;28;20136;-61
2022/08/01 02:42:14;;;;;;;7.50;5.82;;;;;;;17.31;nan;101497.91;5030676;28;20117;-61
2022/08/01 02:44:41;;;;;;;9.23;6.55;;;;;;;17.42;nan;101528.34;5030710;28;20034;-60
2022/08/01 02:47:07;;;;;;;10.13;7.30;;;;;;;17.31;nan;101503.22;5030639;28;20063;-60
2022/08/01 02:49:52;;;;;;;6.60;6.00;;;;;;;17.59;nan;101561.31;5030606;28;20109;-60
2022/08/01 02:52:20;;;;;;;9.93;6.75;;;;;;;17.58;nan;101564.91;5030848;28;20141;-60
2022/08/01 02:54:48;;;;;;;6.18;5.55;;;;;;;17.57;nan;101563.19;5030594;28;20029;-60
2022/08/01 02:57:14;;;;;;;9.18;5.60;;;;;;;17.20;nan;101495.78;5030496;28;20053;-61
2022/08/01 02:59:41;;;;;;;5.30;4.82;;;;;;;17.53;nan;101558.91;5030412;28;20493;-60
2022/08/01 03:02:07;;;;;;;5.68;4.85;;;;;;;17.47;nan;101557.41;5030603;28;20473;-60
2022/08/01 03:04:34;;;;;;;5.22;4.40;;;;;;;17.43;nan;101563.81;5033647;28;20039;-60
2022/08/01 03:07:02;;;;;;;6.85;4.90;;;;;;;17.39;nan;101556.94;5034106;28;20029;-60
2022/08/01 03:09:29;;;;;;;5.68;4.20;;;;;;;17.11;nan;101506.88;5035237;28;20036;-61
2022/08/01 03:11:58;;;;;;;5.53;3.75;;;;;;;17.42;nan;101570.94;5033893;28;20037;-61
2022/08/01 03:14:25;;;;;;;8.02;4.35;;;;;;;17.40;nan;101569.28;5035182;28;20192;-60
2022/08/01 03:16:51;;;;;;;6.13;4.53;;;;;;;17.12;nan;101510.41;5033956;28;20041;-61
2022/08/01 03:19:18;;;;;;;5.82;4.60;;;;;;;16.50;nan;101413.22;5033791;28;20041;-61
2022/08/01 03:21:44;;;;;;;6.32;4.45;;;;;;;17.13;nan;101518.28;5033857;28;20079;-61
2022/08/01 03:24:10;;;;;;;5.93;4.30;;;;;;;17.28;nan;101548.59;5033935;28;20427;-60
2022/08/01 03:26:36;;;;;;;8.27;4.57;;;;;;;17.31;nan;101556.44;5033558;28;20025;-60
2022/08/01 03:29:07;;;;;;;7.65;5.15;;;;;;;17.32;nan;101566.16;5034905;28;20419;-60
2022/08/01 03:31:35;;;;;;;6.97;5.70;;;;;;;17.26;nan;101564.66;5050302;28;20447;-59
2022/08/01 03:34:01;;;;;;;6.68;4.90;;;;;;;16.95;nan;101513.00;5034593;28;20068;-60
2022/08/01 03:36:28;;;;;;;5.45;4.63;;;;;;;17.02;nan;101525.06;5033520;28;20036;-60
2022/08/01 03:38:56;;;;;;;6.63;5.00;;;;;;;17.34;nan;101574.91;5033547;28;20119;-60
2022/08/01 03:41:25;;;;;;;6.15;5.05;;;;;;;17.41;nan;101573.69;5033470;28;20033;-61
2022/08/01 03:43:59;;;;;;;6.10;5.50;;;;;;;17.14;nan;101522.69;5033460;28;20067;-60
2022/08/01 03:46:45;;;;;;;6.07;5.38;;;;;;;17.45;nan;101573.44;5034425;28;20029;-60
2022/08/01 03:49:26;;;;;;;6.22;5.45;;;;;;;17.44;nan;101562.91;5033466;28;20117;-60
2022/08/01 03:51:51;;;;;;;;;;;;;;;17.48;nan;101572.47;5033434;28;20029;-60
2022/08/01 03:54:21;;;;;;;5.27;4.77;;;;;;;17.49;nan;101560.00;5033107;28;20406;-60
2022/08/01 03:56:48;;;;;;;7.88;5.50;;;;;;;17.33;nan;101542.16;5034221;28;20033;-60
2022/08/01 03:59:15;;;;;;;6.82;4.70;;;;;;;17.36;nan;101563.28;5032992;28;20036;-62
2022/08/01 04:01:41;;;;;;;5.45;4.70;;;;;;;17.20;nan;101549.00;5032882;28;20122;-60
2022/08/01 04:04:06;;;;;;;7.70;5.35;;;;;;;17.20;nan;101559.63;5049611;28;20488;-61
2022/08/01 04:06:31;;;;;;;6.32;5.25;;;;;;;17.19;nan;101560.56;5034199;28;20044;-60
2022/08/01 04:08:57;;;;;;;6.25;5.15;;;;;;;16.90;nan;101520.34;5032953;28;20393;-59
2022/08/01 04:11:27;;;;;;;8.35;5.03;;;;;;;17.08;nan;101557.56;5016055;28;20112;-60
2022/08/01 04:13:53;;;;;;;7.30;6.00;;;;;;;17.19;nan;101563.22;5034028;28;20091;-59
2022/08/01 04:16:19;;;;;;;6.13;5.25;;;;;;;17.24;nan;101571.00;5033511;28;20034;-60
2022/08/01 04:18:45;;;;;;;6.75;5.70;;;;;;;17.17;nan;101548.28;5032831;28;20047;-61
2022/08/01 04:21:10;;;;;;;7.35;5.75;;;;;;;17.35;nan;101572.19;5032819;28;20128;-61
2022/08/01 04:23:36;;;;;;;8.75;5.65;;;;;;;17.15;nan;101532.41;5033626;28;20033;-61
2022/08/01 04:26:04;;;;;;;7.78;5.90;;;;;;;17.43;nan;101578.00;5032462;28;20038;-61
2022/08/01 04:28:31;;;;;;;8.60;5.63;;;;;;;17.49;nan;101581.28;5032496;28;20033;-60
2022/08/01 04:30:57;;;;;;;5.45;4.95;;;;;;;17.18;nan;101526.94;5033462;28;20120;-61
2022/08/01 04:33:24;;;;;;;7.95;5.15;;;;;;;17.47;nan;101568.06;5033498;28;20119;-59
2022/08/01 04:35:50;;;;;;;5.95;5.05;;;;;;;17.56;nan;101575.63;5032405;28;20061;-60
2022/08/01 04:38:20;;;;;;;6.20;5.50;;;;;;;17.61;nan;101575.41;5032402;28;20461;-61
2022/08/01 04:40:46;;;;;;;6.88;6.18;;;;;;;17.54;nan;101561.53;5032317;28;20121;-60
2022/08/01 04:43:12;;;;;;;6.55;5.95;;;;;;;17.43;nan;101531.88;5032437;28;20124;-60
2022/08/01 04:45:38;;;;;;;7.05;5.90;;;;;;;17.76;nan;101593.28;5032306;28;20501;-60
2022/08/01 04:48:06;;;;;;;6.65;5.68;;;;;;;17.81;nan;101577.91;5032161;28;20030;-62
2022/08/01 04:50:32;;;;;;;8.70;5.47;;;;;;;17.79;nan;101580.66;5032285;28;20030;-60
2022/08/01 04:52:57;;;;;;;5.32;4.82;;;;;;;17.59;nan;101543.53;5031978;28;20117;-60
2022/08/01 04:55:22;;;;;;;5.30;4.80;;;;;;;17.90;nan;101585.44;5033570;28;20386;-60
2022/08/01 04:57:48;;;;;;;5.93;4.50;;;;;;;17.87;nan;101577.59;5032257;28;20036;-60
2022/08/01 05:00:16;;;;;;;7.38;5.00;;;;;;;17.61;nan;101532.78;5032043;28;20029;-59
2022/08/01 05:02:41;;;;;;;5.68;4.18;;;;;;;17.68;nan;101540.41;5033214;28;20378;-60
2022/08/01 05:05:07;;;;;;;5.00;4.57;;;;;;;17.97;nan;101593.06;5031696;28;20040;-61
2022/08/01 05:07:35;;;;;;;5.05;4.65;;;;;;;17.68;nan;101535.09;5031534;28;20041;-61
2022/08/01 05:10:01;;;;;;;5.28;4.32;;;;;;;18.04;nan;101587.44;5033270;28;20037;-61
2022/08/01 05:12:26;;;;;;;5.18;4.38;;;;;;;17.73;nan;101542.84;5033068;28;20040;-61
2022/08/01 05:14:52;;;;;;;5.65;4.35;;;;;;;18.04;nan;101584.75;5032729;28;20025;-65
2022/08/01 05:17:17;;;;;;;5.32;4.53;;;;;;;18.04;nan;101577.59;5032743;28;20579;-61
2022/08/01 05:19:42;;;;;;;5.95;4.68;;;;;;;17.79;nan;101532.75;5032937;28;20040;-61
2022/08/01 05:22:08;;;;;;;4.47;4.07;;;;;;;18.13;nan;101584.25;5048030;28;20539;-60
2022/08/01 05:24:36;;;;;;;4.63;4.15;;;;;;;17.83;nan;101530.78;5033054;28;20241;-61
2022/08/01 05:27:01;;;;;;;4.57;4.18;;;;;;;18.16;nan;101584.97;5048066;28;20478;-60
2022/08/01 05:29:27;;;;;;;5.50;4.20;;;;;;;18.11;nan;101576.34;5032758;28;20124;-60
2022/08/01 05:31:53;;;;;;;4.47;3.72;;;;;;;17.83;nan;101523.63;5032560;28;20033;-60
2022/08/01 05:34:19;;;;;;;4.93;4.45;;;;;;;18.20;nan;101591.88;5048037;28;20396;-59
2022/08/01 05:36:45;;;;;;;5.03;4.28;;;;;;;18.10;nan;101569.28;5031320;28;20034;-61
2022/08/01 05:39:10;;;;;;;4.40;3.75;;;;;;;17.91;nan;101537.44;5031390;28;20056;-60
2022/08/01 05:41:37;;;;;;;5.68;4.20;;;;;;;18.22;nan;101599.78;5032750;28;20045;-61
2022/08/01 05:44:04;;;;;;;4.55;4.15;;;;;;;18.16;nan;101590.28;5031573;28;20072;-61
2022/08/01 05:46:30;;;;;;;3.78;3.47;;;;;;;17.85;nan;101567.06;5031188;28;20029;-60
2022/08/01 05:48:56;;;;;;;3.55;3.22;;;;;;;17.84;nan;101564.44;5047709;28;20069;-60
2022/08/01 05:51:21;;;;;;;3.83;3.53;;;;;;;18.17;nan;101616.00;5032223;28;20045;-60
2022/08/01 05:53:47;;;;;;;4.25;3.80;;;;;;;17.72;nan;101557.06;5032220;28;20033;-61
2022/08/01 05:56:12;;;;;;;3.75;3.40;;;;;;;17.99;nan;101617.81;5031100;28;20030;-61
2022/08/01 05:58:38;;;;;;;5.18;4.15;;;;;;;17.88;nan;101612.16;5032402;28;20394;-60
2022/08/01 06:01:03;;;;;;;4.90;3.72;;;;;;;17.71;nan;101611.28;5032265;28;20075;-61
2022/08/01 06:03:31;;;;;;;4.57;4.10;;;;;;;17.67;nan;101612.38;5031039;28;20040;-59
2022/08/01 06:05:56;;;;;;;6.28;4.90;;;;;;;17.37;nan;101588.06;5032113;28;20041;-62
2022/08/01 06:08:22;;;;;;;5.00;4.45;;;;;;;17.35;nan;101564.22;5032142;28;20158;-60
2022/08/01 06:10:47;;;;;;;7.32;4.80;;;;;;;17.74;nan;101627.97;5030946;28;20416;-61
2022/08/01 06:13:13;;;;;;;6.80;4.82;;;;;;;17.69;nan;101618.47;5032532;28;20380;-59
2022/08/01 06:15:38;;;;;;;6.70;5.40;;;;;;;17.80;nan;101632.13;5047425;28;20080;-61
2022/08/01 06:18:04;;;;;;;6.22;5.28;;;;;;;17.83;nan;101639.97;5030892;28;20029;-61
2022/08/01 06:20:30;;;;;;;6.53;5.25;;;;;;;17.80;nan;101634.81;5031835;28;20554;-60
2022/08/01 06:22:55;;;;;;;6.10;5.47;;;;;;;17.86;nan;101630.00;5030967;28;20049;-62
2022/08/01 06:25:21;;;;;;;7.78;6.43;;;;;;;17.90;nan;101636.91;5032189;28;20469;-61
2022/08/01 06:27:46;;;;;;;7.30;5.43;;;;;;;17.65;nan;101583.16;5032005;28;20088;-59
2022/08/01 06:30:11;;;;;;;9.05;5.70;;;;;;;17.72;nan;101586.38;5031841;28;20045;-61
2022/08/01 06:32:37;;;;;;;7.75;5.68;;;;;;;17.59;nan;101583.47;5031916;28;20469;-60
2022/08/01 06:35:03;;;;;;;8.25;5.55;;;;;;;17.75;nan;101616.38;5031984;28;20041;-61
2022/08/01 06:37:30;;;;;;;6.72;6.13;;;;;;;17.91;nan;101643.97;5031769;28;20465;-60
2022/08/01 06:39:55;;;;;;;7.43;6.45;;;;;;;17.83;nan;101643.47;5036021;28;20025;-62
2022/08/01 06:42:20;;;;;;;7.20;6.13;;;;;;;17.42;nan;101589.56;5034714;28;20040;-61
2022/08/01 06:44:46;;;;;;;10.60;7.07;;;;;;;17.24;nan;101552.38;5035848;28;20165;-60
2022/08/01 06:47:11;;;;;;;12.50;7.50;;;;;;;17.82;nan;101647.09;5035727;28;20056;-61
2022/08/01 06:49:36;;;;;;;10.98;7.60;;;;;;;17.87;nan;101649.53;5050928;28;20033;-61
2022/08/01 06:52:03;;;;;;;13.63;8.32;;;;;;;17.39;nan;101584.44;5034212;28;20037;-60
2022/08/01 06:54:28;;;;;;;13.82;7.85;;;;;;;17.35;nan;101592.63;5035586;28;20033;-61
2022/08/01 06:56:54;;;;;;;17.33;8.45;;;;;;;17.32;nan;101601.63;5035533;28;20033;-59
2022/08/01 06:59:19;;;;;;;15.05;9.00;;;;;;;17.30;nan;101592.84;5035576;28;20041;-61
2022/08/01 07:01:44;;;;;;;18.65;8.43;;;;;;;17.41;nan;101609.16;5034240;28;20036;-59
2022/08/01 07:04:10;;;;;;;20.52;8.38;;;;;;;17.45;nan;101602.72;5050600;28;20595;-61
2022/08/01 07:06:35;;;;;;;16.15;7.85;;;;;;;17.91;nan;101661.75;5035544;28;20047;-60
2022/08/01 07:09:01;;;;;;;18.45;8.07;;;;;;;17.88;nan;101652.13;5035290;28;20045;-60
2022/08/01 07:11:27;;;;;;;20.88;7.40;;;;;;;17.95;nan;101676.63;5035539;28;20041;-60
2022/08/01 07:13:52;;;;;;;21.20;6.90;;;;;;;17.67;nan;101618.56;5035108;28;20037;-60
2022/08/01 07:16:17;;;;;;;20.52;7.32;;;;;;;17.88;nan;101664.56;5035281;28;20441;-60
2022/08/01 07:18:43;;;;;;;16.75;6.72;;;;;;;17.97;nan;101666.78;5034950;28;20040;-60
2022/08/01 07:21:08;;;;;;;17.55;6.70;;;;;;;18.15;nan;101688.97;5033852;28;20026;-60
2022/08/01 07:23:34;;;;;;;16.35;5.88;;;;;;;18.04;nan;101624.72;5035258;28;20431;-61
2022/08/01 07:26:01;;;;;;;18.77;6.65;;;;;;;18.15;nan;101627.69;5050517;28;20059;-60
2022/08/01 07:28:27;;;;;;;18.05;6.10;;;;;;;18.25;nan;101628.94;5034960;28;20044;-60
2022/08/01 07:30:52;;;;;;;18.05;5.93;;;;;;;18.39;nan;101645.06;5034529;28;20473;-60
2022/08/01 07:33:18;;;;;;;24.92;6.28;;;;;;;18.68;nan;101692.44;5049983;28;20049;-62
2022/08/01 07:35:43;;;;;;;18.95;6.57;;;;;;;18.38;nan;101654.88;5034894;28;20041;-61
2022/08/01 07:38:08;;;;;;;14.98;6.20;;;;;;;18.46;nan;101718.47;5034991;28;20201;-59
2022/08/01 07:40:34;;;;;;;17.15;4.53;;;;;;;18.44;nan;101702.56;5034588;28;20041;-61
2022/08/01 07:42:59;;;;;;;16.30;4.50;;;;;;;18.43;nan;101707.94;5035092;28;20033;-61
2022/08/01 07:45:26;;;;;;;12.40;4.07;;;;;;;18.51;nan;101714.66;5034617;28;20045;-60
2022/08/01 07:47:51;;;;;;;13.45;3.97;;;;;;;18.54;nan;101706.50;5034529;28;20029;-61
2022/08/01 07:50:17;;;;;;;19.80;4.43;;;;;;;18.49;nan;101681.00;5032030;28;20067;-61
2022/08/01 07:52:42;;;;;;;12.77;4.13;;;;;;;18.72;nan;101709.13;5034477;28;20064;-61
2022/08/01 07:55:09;;;;;;;10.55;4.20;;;;;;;19.01;nan;101727.13;5034356;28;20080;-60
2022/08/01 07:57:35;;;;;;;9.10;3.40;;;;;;;19.02;nan;101723.53;5034484;28;20041;-59
2022/08/01 08:00:00;;;;;;;12.63;3.83;;;;;;;19.08;nan;101731.22;5034464;28;20443;-60
2022/08/01 08:02:26;;;;;;;10.35;3.30;;;;;;;19.06;nan;101741.09;5032715;28;20033;-61
2022/08/01 08:04:51;;;;;;;13.35;4.00;;;;;;;18.94;nan;101734.59;5033006;28;20065;-60
2022/08/01 08:07:17;;;;;;;12.25;3.67;;;;;;;18.88;nan;101734.94;5034290;28;20029;-60
2022/08/01 08:09:42;;;;;;;11.40;4.18;;;;;;;18.17;nan;101642.66;5033949;28;20034;-61
2022/08/01 08:12:08;;;;;;;13.60;3.67;;;;;;;18.50;nan;101696.91;5034007;28;20049;-60
2022/08/01 08:14:33;;;;;;;6.90;2.85;;;;;;;18.80;nan;101745.13;5032663;28;20034;-60
2022/08/01 08:16:59;;;;;;;12.60;2.95;;;;;;;18.96;nan;101674.03;5032792;28;20253;-61
2022/08/01 08:19:24;;;;;;;8.07;3.03;;;;;;;19.67;nan;101739.50;5033652;28;20031;-61
2022/08/01 08:21:49;;;;;;;11.38;3.45;;;;;;;19.60;nan;101694.53;5033659;28;20044;-61
2022/08/01 08:24:21;;;;;;;11.57;3.17;;;;;;;20.01;nan;101717.09;5032797;28;20038;-60
2022/08/01 08:26:52;;;;;;;10.23;3.13;;;;;;;20.45;nan;101765.34;5033988;28;20370;-61
2022/08/01 08:29:19;;;;;;;7.93;3.15;;;;;;;20.90;nan;101769.72;5032581;28;20037;-58
2022/08/01 08:31:44;;;;;;;8.50;2.97;;;;;;;21.23;nan;101740.06;5033267;28;20577;-61
2022/08/01 08:34:10;;;;;;;13.20;3.50;;;;;;;21.65;nan;101782.03;5032328;28;20072;-59
2022/08/01 08:36:35;;;;;;;8.25;3.08;;;;;;;21.88;nan;101778.78;5033612;28;20044;-61
2022/08/01 08:39:00;;;;;;;7.35;2.70;;;;;;;21.59;nan;101755.63;5032346;28;20030;-60
2022/08/01 08:41:26;;;;;;;9.40;3.72;;;;;;;21.38;nan;101765.88;5033428;28;20048;-60
2022/08/01 08:43:52;;;;;;;8.38;3.53;;;;;;;21.47;nan;101789.44;5032165;28;20411;-59
2022/08/01 08:46:18;;;;;;;10.50;3.70;;;;;;;21.11;nan;101740.81;5048610;28;20034;-60
2022/08/01 08:48:44;;;;;;;10.80;3.47;;;;;;;21.12;nan;101791.63;5032223;28;20113;-60
2022/08/01 08:51:11;;;;;;;6.05;2.63;;;;;;;20.91;nan;101760.75;5031974;28;20168;-61
2022/08/01 08:53:38;;;;;;;10.18;3.28;;;;;;;21.07;nan;101784.78;5033409;28;20045;-61
2022/08/01 08:56:06;;;;;;;11.48;3.63;;;;;;;21.50;nan;101799.09;5032004;28;20037;-60
2022/08/01 08:58:37;;;;;;;8.73;3.00;;;;;;;21.32;nan;101779.66;5032030;28;20136;-61
2022/08/01 09:01:05;;;;;;;7.00;2.55;;;;;;;20.80;nan;101799.81;5032183;28;20476;-61
2022/08/01 09:03:30;;;;;;;8.45;3.20;;;;;;;20.23;nan;101789.72;5033099;28;20033;-60
2022/08/01 09:05:55;;;;;;;5.95;3.33;;;;;;;20.13;nan;101798.38;5033201;28;20473;-61
2022/08/01 09:08:21;;;;;;;7.93;3.20;;;;;;;20.05;nan;101792.63;5032926;28;20045;-59
2022/08/01 09:10:46;;;;;;;10.88;3.13;;;;;;;20.17;nan;101790.09;5032823;28;20037;-60
2022/08/01 09:13:14;;;;;;;10.13;2.92;;;;;;;20.13;nan;101753.81;5032830;28;20034;-61
2022/08/01 09:15:46;;;;;;;7.22;2.28;;;;;;;20.90;nan;101804.53;5032654;28;20079;-61
2022/08/01 09:18:33;;;;;;;4.78;2.17;;;;;;;21.80;nan;101815.91;5032708;28;20496;-60
2022/08/01 09:21:19;;;;;;;8.90;2.30;;;;;;;22.07;nan;101832.06;5032806;28;20277;-60
2022/08/01 09:23:52;;;;;;;9.73;2.53;;;;;;;22.13;nan;101837.88;5032280;28;20045;-60
2022/08/01 09:26:38;;;;;;;8.82;2.00;;;;;;;22.72;nan;101822.38;5032895;28;20038;-61
2022/08/01 09:29:06;;;;;;;5.88;2.28;;;;;;;22.66;nan;101836.22;5032205;28;20046;-61
2022/08/01 09:31:42;;;;;;;8.63;2.42;;;;;;;23.47;nan;101822.47;5032092;28;20052;-62
2022/08/01 09:34:09;;;;;;;6.30;1.73;;;;;;;23.55;nan;101799.59;5032600;28;20111;-59
2022/08/01 09:36:48;;;;;;;4.85;1.92;;;;;;;23.60;nan;101856.56;5031102;28;20370;-60
2022/08/01 09:39:14;;;;;;;6.70;2.10;;;;;;;23.53;nan;101862.38;5048052;28;20025;-61
2022/08/01 09:41:39;;;;;;;5.95;2.35;;;;;;;23.18;nan;101779.78;5031432;28;20273;-61
2022/08/01 09:44:05;;;;;;;7.38;2.28;;;;;;;23.11;nan;101800.00;5032433;28;20382;-60
2022/08/01 09:46:31;;;;;;;11.52;2.63;;;;;;;23.07;nan;101854.88;5048050;28;20048;-60
2022/08/01 09:49:06;;;;;;;5.55;1.77;;;;;;;22.60;nan;101863.41;5032096;28;20061;-60
2022/08/01 09:51:38;;;;;;;7.63;1.90;;;;;;;22.12;nan;101836.19;5030829;28;20033;-61
2022/08/01 09:54:05;;;;;;;6.53;2.03;;;;;;;21.88;nan;101853.84;5032589;28;20033;-60
2022/08/01 09:56:39;;;;;;;4.57;1.85;;;;;;;21.44;nan;101836.97;5031076;28;20428;-60
2022/08/01 09:59:05;;;;;;;5.55;1.92;;;;;;;21.31;nan;101839.53;5031623;28;20382;-61
2022/08/01 10:01:47;;;;;;;4.97;1.88;;;;;;;21.59;nan;101844.91;5030912;28;20045;-60
2022/08/01 10:04:20;;;;;;;4.40;1.75;;;;;;;22.17;nan;101841.25;5032163;28;20583;-61
2022/08/01 10:06:52;;;;;;;3.33;1.50;;;;;;;22.54;nan;101866.50;5032327;28;20041;-59
2022/08/01 10:09:27;;;;;;;5.90;2.17;;;;;;;22.66;nan;101866.59;5032174;28;20025;-60
2022/08/01 10:11:54;;;;;;;3.50;1.52;;;;;;;23.16;nan;101812.13;5030776;28;20118;-61
2022/08/01 10:14:20;;;;;;;8.25;2.10;;;;;;;23.64;nan;101861.63;5035517;28;20036;-62
2022/08/01 10:16:47;;;;;;;5.43;1.80;;;;;;;23.59;nan;101814.50;5035083;28;20075;-61
2022/08/01 10:19:13;;;;;;;5.50;1.80;;;;;;;23.79;nan;101868.56;5035117;28;20397;-60
2022/08/01 10:21:39;;;;;;;6.72;1.80;;;;;;;24.09;nan;101847.53;5018476;28;20208;-60
2022/08/01 10:24:05;;;;;;;7.03;2.22;;;;;;;24.18;nan;101820.97;5035052;28;20121;-61
2022/08/01 10:26:33;;;;;;;6.55;2.28;;;;;;;23.84;nan;101871.81;5034719;28;20041;-62
2022/08/01 10:28:59;;;;;;;9.48;2.28;;;;;;;23.65;nan;101857.94;5035896;28;20440;-61
2022/08/01 10:31:24;;;;;;;5.75;1.60;;;;;;;23.44;nan;101817.31;5034716;28;20107;-62
2022/08/01 10:33:50;;;;;;;4.70;1.60;;;;;;;23.84;nan;101874.50;5051470;28;20076;-61
2022/08/01 10:36:19;;;;;;;5.65;1.75;;;;;;;24.20;nan;101881.75;5051384;28;20036;-61
2022/08/01 10:38:45;;;;;;;4.68;1.58;;;;;;;23.85;nan;101880.72;5034598;28;20079;-62
2022/08/01 10:41:12;;;;;;;4.43;1.67;;;;;;;23.55;nan;101870.34;5034884;28;20033;-60
2022/08/01 10:43:38;;;;;;;3.47;1.30;;;;;;;23.43;nan;101893.56;5036003;28;20038;-61
2022/08/01 10:46:04;;;;;;;6.88;1.55;;;;;;;23.40;nan;101857.97;5036057;28;20409;-61
2022/08/01 10:48:35;;;;;;;5.07;2.35;;;;;;;23.68;nan;101889.13;5035752;28;20070;-61
2022/08/01 10:51:02;;;;;;;6.22;1.77;;;;;;;23.80;nan;101883.75;5035601;28;20072;-61
2022/08/01 10:53:28;;;;;;;6.15;1.77;;;;;;;23.93;nan;101878.38;5034452;28;20033;-60
2022/08/01 10:56:02;;;;;;;5.78;1.88;;;;;;;23.39;nan;101883.97;5035533;28;20038;-60
2022/08/01 10:58:32;;;;;;;4.70;1.80;;;;;;;23.48;nan;101877.97;5035817;28;20404;-61
2022/08/01 11:01:18;;;;;;;6.07;2.22;;;;;;;23.71;nan;101862.03;5035619;28;20033;-60
2022/08/01 11:03:55;;;;;;;4.85;1.55;;;;;;;24.29;nan;101905.31;5035384;28;20112;-62
2022/08/01 11:06:26;;;;;;;5.03;2.20;;;;;;;24.15;nan;101858.84;5035670;28;20037;-63
2022/08/01 11:08:52;;;;;;;;;;;;;;;24.55;nan;101923.09;5034616;28;20040;-61
2022/08/01 11:11:19;;;;;;;7.10;2.20;;;;;;;24.95;nan;101923.72;5035314;28;19913;-61
2022/08/01 11:14:12;;;;;;;5.75;2.17;;;;;;;25.29;nan;101923.81;5035313;28;20041;-61
2022/08/01 11:16:39;;;;;;;6.07;2.50;;;;;;;25.26;nan;101905.19;5035342;28;20029;-59
2022/08/01 11:19:06;;;;;;;3.72;1.85;;;;;;;24.78;nan;101874.75;5033994;28;20075;-60
2022/08/01 11:21:53;;;;;;;6.60;1.83;;;;;;;25.17;nan;101917.53;5034967;28;20067;-60
2022/08/01 11:24:56;;;;;;;3.45;2.10;;;;;;;25.95;nan;101921.25;5034793;28;20076;-60
2022/08/01 11:27:31;;;;;;;2.40;1.45;;;;;;;25.86;nan;101929.25;5034777;28;20108;-60
2022/08/01 11:30:08;;;;;;;3.53;1.30;;;;;;;26.45;nan;101941.50;5033475;28;20111;-62
2022/08/01 11:32:46;;;;;;;3.28;1.50;;;;;;;26.97;nan;101880.50;5034918;28;20120;-60
2022/08/01 11:35:11;;;;;;;2.95;1.15;;;;;;;27.70;nan;101934.53;5034733;28;20037;-62
2022/08/01 11:37:37;;;;;;;4.13;1.48;;;;;;;27.26;nan;101885.09;5033547;28;20469;-62
2022/08/01 11:40:22;;;;;;;7.90;1.75;;;;;;;28.00;nan;101930.97;5034836;28;20042;-63
2022/08/01 11:42:49;;;;;;;2.95;1.50;;;;;;;27.53;nan;101922.47;5034611;28;20476;-62